NCAR-RAP Real-Time Weather Data

Output produced by METARs form (08 May 2021  01:52 UTC)
found at http://weather.rap.ucar.edu/surface/
 
KBLF 080052Z AUTO 28005KT 10SM CLR 08/M02 A2997 RMK AO2 SLP148 T00781022
KBLF 072352Z AUTO 29010G15KT 10SM CLR 09/M02 A2997 RMK AO2 SLP146 T00891022 10111 20089 50000
KBLF 072252Z AUTO 29014G20KT 10SM CLR 09/M03 A2997 RMK AO2 SLP146 T00941028
KBLF 072152Z AUTO 29015G23KT 10SM SCT060 SCT070 BKN085 10/M03 A2997 RMK AO2 SLP146 T01001033
KBLF 072052Z AUTO 30012G24KT 10SM BKN070 11/M03 A2997 RMK AO2 PK WND 30026/2041 SLP142 T01061033 50001
KBLF 071952Z AUTO 29016G24KT 10SM SCT060 BKN075 10/M03 A2997 RMK AO2 PK WND 27026/1937 SLP143 T01001028
KBLF 071852Z AUTO 31016G23KT 10SM FEW046 SCT060 BKN070 09/M03 A2998 RMK AO2 PK WND 28027/1757 SLP144 T00941033
KBLF 071752Z AUTO 30012G22KT 260V330 10SM FEW049 09/00 A2997 RMK AO2 SLP142 60011 T00940000 10094 20044 50005
KBLF 071736Z AUTO 29013G25KT 10SM FEW021 09/02 A2997 RMK AO2 T00940017
KBLF 071652Z AUTO 28008KT 250V310 10SM SCT012 SCT017 BKN028 07/05 A2997 RMK AO2 PK WND 29026/1554 RAE35 SLP146 P0005 T00720050
KBLF 071632Z AUTO 30010G15KT 10SM -RA SCT010 BKN015 OVC047 05/03 A2998 RMK AO2 PK WND 29026/1554 P0005 T00500033
KBLF 071621Z AUTO 29011G18KT 2SM +RA BR SCT011 BKN017 OVC027 04/03 A2999 RMK AO2 PK WND 29026/1554 P0005 T00440028
KBLF 071552Z AUTO 27016G23KT 10SM -RA SCT018 BKN023 OVC047 07/04 A2996 RMK AO2 RAB48 SLP141 P0000 T00670039
KBLF 071542Z AUTO 29013G22KT 10SM SCT017 BKN025 OVC050 08/04 A2995 RMK AO2 T00780039
KBLF 071524Z AUTO 28010G19KT 10SM SCT015 BKN040 OVC050 08/04 A2995 RMK AO2 T00780044
KBLF 071514Z AUTO 28008G17KT 10SM FEW012 BKN017 OVC040 07/04 A2995 RMK AO2 T00670039
KBLF 071503Z AUTO VRB06G17KT 10SM SCT010 BKN013 OVC035 06/04 A2995 RMK AO2 T00610044
KBLF 071456Z AUTO 27008KT 10SM FEW009 BKN015 OVC022 07/04 A2995 RMK AO2 T00670044
KBLF 071452Z AUTO 27008G16KT 10SM BKN009 BKN015 OVC030 07/05 A2995 RMK AO2 RAE22 CIG 007V014 SLP136 P0000 60006 T00720050 51006
KBLF 071412Z AUTO 30006G20KT 10SM -RA BKN009 BKN015 OVC044 06/04 A2995 RMK AO2 CIG 007V011 P0000 T00560044
KBLF 071407Z AUTO 29011G20KT 10SM -RA BKN011 BKN016 OVC034 06/04 A2995 RMK AO2 P0000 T00560039
KBLF 071359Z AUTO 29008KT 260V320 10SM -RA SCT011 BKN015 OVC034 06/04 A2995 RMK AO2 P0000 T00610044
KBLF 071352Z AUTO 29010KT 10SM -RA BKN011 BKN024 OVC043 06/04 A2995 RMK AO2 SLP136 P0002 T00560039
KBLF 071344Z AUTO 30008G18KT 8SM -RA FEW007 BKN013 OVC035 05/04 A2994 RMK AO2 P0002 T00500039
KBLF 071317Z AUTO VRB05KT 6SM -RA BR BKN008 BKN012 OVC033 06/04 A2994 RMK AO2 CIG 005V010 P0000 T00560044
KBLF 071252Z AUTO 28008KT 10SM -RA BKN010 BKN015 OVC020 06/04 A2994 RMK AO2 CIG 005V012 SLP132 P0004 T00560044
KBLF 071225Z AUTO 29007KT 8SM -RA SCT004 BKN010 OVC014 05/04 A2994 RMK AO2 P0004 T00500039
KBLF 071201Z AUTO 27007KT 4SM RA BR BKN004 BKN009 OVC016 05/04 A2993 RMK AO2 P0001 T00500044
KBLF 071152Z AUTO 28006KT 3SM RA BR SCT004 BKN009 OVC019 05/04 A2993 RMK AO2 CIG 006V011 SLP129 P0004 60004 70004 T00500044 10078 20050 53007
KBLF 071142Z AUTO 26005KT 6SM -RA BR BKN009 BKN016 OVC039 05/04 A2993 RMK AO2 P0002 T00500039
KBLF 071113Z AUTO 28005KT 9SM -RA BKN012 BKN026 OVC055 05/03 A2992 RMK AO2 P0001 T00500033
KBLF 071052Z AUTO 27005KT 10SM -RA FEW027 BKN047 OVC055 06/03 A2991 RMK AO2 SLP121 P0000 T00560028